Terminal Aerodrome Forecast
Issued by NWS Charleston, WV

Current Version | Previous Version | Text Only | Print | Product List | Glossary Off
Versions: 1 2 3 4 5 6 7 8 9 10 11 12 13 14 15 16 17 18 19 20 21 22 23 24

000
FTUS41 KRLX 162347
TAFPKB
TAF
KPKB 162347Z 1700/1724 34004KT P6SM OVC025
      TEMPO 1700/1703 BKN015
     FM170300 35003KT P6SM SCT025
     FM170900 00000KT P6SM FEW025
     FM171600 00000KT P6SM BKN120
     FM171800 00000KT 6SM -RA BR OVC120
     FM172000 00000KT 5SM -RASN BR OVC015=

USA.gov is the U.S. government's official web portal to all federal, state and local government web resources and services.